sensor_id;sensor_type;location;lat;lon;timestamp;pressure;altitude;pressure_sealevel;temperature;humidity
7433;BME280;32233;49.500;7.764;2024-02-23T00:01:05;96271.38;;;4.29;100.00
7433;BME280;32233;49.500;7.764;2024-02-23T00:03:33;96276.53;;;4.36;100.00
7433;BME280;32233;49.500;7.764;2024-02-23T00:06:01;96278.78;;;4.32;100.00
7433;BME280;32233;49.500;7.764;2024-02-23T00:08:27;96286.34;;;4.40;100.00
7433;BME280;32233;49.500;7.764;2024-02-23T00:10:54;96293.66;;;4.32;100.00
7433;BME280;32233;49.500;7.764;2024-02-23T00:13:20;96322.25;;;4.33;100.00
7433;BME280;32233;49.500;7.764;2024-02-23T00:15:47;96323.88;;;4.28;100.00
7433;BME280;32233;49.500;7.764;2024-02-23T00:18:14;96327.88;;;4.30;100.00
7433;BME280;32233;49.500;7.764;2024-02-23T00:20:42;96332.47;;;4.35;100.00
7433;BME280;32233;49.500;7.764;2024-02-23T00:23:09;96341.66;;;4.44;100.00
7433;BME280;32233;49.500;7.764;2024-02-23T00:25:35;96339.94;;;4.56;100.00
7433;BME280;32233;49.500;7.764;2024-02-23T00:28:02;96352.66;;;4.53;100.00
7433;BME280;32233;49.500;7.764;2024-02-23T00:30:29;96356.50;;;4.50;100.00
7433;BME280;32233;49.500;7.764;2024-02-23T00:32:55;96340.22;;;4.48;100.00
7433;BME280;32233;49.500;7.764;2024-02-23T00:35:22;96352.84;;;4.58;100.00
7433;BME280;32233;49.500;7.764;2024-02-23T00:37:48;96356.81;;;4.60;100.00
7433;BME280;32233;49.500;7.764;2024-02-23T00:40:15;96374.56;;;4.58;100.00
7433;BME280;32233;49.500;7.764;2024-02-23T00:42:42;96378.19;;;4.57;100.00
7433;BME280;32233;49.500;7.764;2024-02-23T00:45:08;96413.00;;;4.58;100.00
7433;BME280;32233;49.500;7.764;2024-02-23T00:47:35;96432.72;;;3.90;100.00
7433;BME280;32233;49.500;7.764;2024-02-23T00:50:02;96439.16;;;3.23;100.00
7433;BME280;32233;49.500;7.764;2024-02-23T00:52:28;96427.34;;;2.81;100.00
7433;BME280;32233;49.500;7.764;2024-02-23T00:54:55;96446.84;;;2.78;100.00
7433;BME280;32233;49.500;7.764;2024-02-23T00:57:21;96451.25;;;2.78;100.00
7433;BME280;32233;49.500;7.764;2024-02-23T00:59:53;96433.38;;;2.75;100.00
7433;BME280;32233;49.500;7.764;2024-02-23T01:02:20;96436.56;;;2.57;100.00
7433;BME280;32233;49.500;7.764;2024-02-23T01:04:46;96426.75;;;2.45;100.00
7433;BME280;32233;49.500;7.764;2024-02-23T01:07:13;96421.13;;;2.42;100.00
7433;BME280;32233;49.500;7.764;2024-02-23T01:09:40;96424.50;;;2.36;100.00
7433;BME280;32233;49.500;7.764;2024-02-23T01:12:06;96415.50;;;2.38;100.00
7433;BME280;32233;49.500;7.764;2024-02-23T01:14:33;96430.72;;;2.21;100.00
7433;BME280;32233;49.500;7.764;2024-02-23T01:16:59;96428.50;;;2.18;100.00
7433;BME280;32233;49.500;7.764;2024-02-23T01:19:26;96429.31;;;2.12;100.00
7433;BME280;32233;49.500;7.764;2024-02-23T01:21:52;96427.69;;;2.05;100.00
7433;BME280;32233;49.500;7.764;2024-02-23T01:24:26;96427.63;;;1.91;100.00
7433;BME280;32233;49.500;7.764;2024-02-23T01:26:54;96427.25;;;2.01;100.00
7433;BME280;32233;49.500;7.764;2024-02-23T01:29:25;96435.06;;;1.94;100.00
7433;BME280;32233;49.500;7.764;2024-02-23T01:31:53;96442.91;;;2.01;100.00
7433;BME280;32233;49.500;7.764;2024-02-23T01:34:21;96441.88;;;1.95;100.00
7433;BME280;32233;49.500;7.764;2024-02-23T01:36:48;96446.91;;;1.97;100.00
7433;BME280;32233;49.500;7.764;2024-02-23T01:39:15;96450.69;;;1.88;100.00
7433;BME280;32233;49.500;7.764;2024-02-23T01:41:41;96451.91;;;1.92;100.00
7433;BME280;32233;49.500;7.764;2024-02-23T01:44:11;96448.84;;;1.82;100.00
7433;BME280;32233;49.500;7.764;2024-02-23T01:46:37;96459.25;;;1.82;100.00
7433;BME280;32233;49.500;7.764;2024-02-23T01:49:05;96459.63;;;1.79;100.00
7433;BME280;32233;49.500;7.764;2024-02-23T01:51:33;96459.69;;;1.85;100.00
7433;BME280;32233;49.500;7.764;2024-02-23T01:54:01;96460.25;;;1.81;100.00
7433;BME280;32233;49.500;7.764;2024-02-23T01:56:28;96460.44;;;1.72;100.00
7433;BME280;32233;49.500;7.764;2024-02-23T01:58:55;96454.84;;;1.82;100.00
7433;BME280;32233;49.500;7.764;2024-02-23T02:01:22;96459.88;;;1.84;100.00
7433;BME280;32233;49.500;7.764;2024-02-23T02:03:48;96459.88;;;1.90;100.00
7433;BME280;32233;49.500;7.764;2024-02-23T02:06:15;96460.69;;;1.91;100.00
7433;BME280;32233;49.500;7.764;2024-02-23T02:08:41;96460.50;;;1.92;100.00
7433;BME280;32233;49.500;7.764;2024-02-23T02:11:08;96460.13;;;2.02;100.00
7433;BME280;32233;49.500;7.764;2024-02-23T02:13:35;96461.72;;;1.96;100.00
7433;BME280;32233;49.500;7.764;2024-02-23T02:16:01;96459.19;;;2.23;100.00
7433;BME280;32233;49.500;7.764;2024-02-23T02:18:31;96469.63;;;2.36;100.00
7433;BME280;32233;49.500;7.764;2024-02-23T02:20:57;96470.28;;;2.45;100.00
7433;BME280;32233;49.500;7.764;2024-02-23T02:23:24;96478.31;;;2.50;100.00
7433;BME280;32233;49.500;7.764;2024-02-23T02:25:56;96462.47;;;2.65;100.00
7433;BME280;32233;49.500;7.764;2024-02-23T02:28:23;96481.72;;;2.64;100.00
7433;BME280;32233;49.500;7.764;2024-02-23T02:30:51;96477.31;;;2.64;100.00
7433;BME280;32233;49.500;7.764;2024-02-23T02:33:18;96483.56;;;2.70;100.00
7433;BME280;32233;49.500;7.764;2024-02-23T02:35:45;96489.56;;;2.57;100.00
7433;BME280;32233;49.500;7.764;2024-02-23T02:38:11;96493.56;;;2.53;100.00
7433;BME280;32233;49.500;7.764;2024-02-23T02:40:38;96488.31;;;2.46;100.00
7433;BME280;32233;49.500;7.764;2024-02-23T02:43:05;96488.13;;;2.48;100.00
7433;BME280;32233;49.500;7.764;2024-02-23T02:45:32;96496.38;;;2.45;100.00
7433;BME280;32233;49.500;7.764;2024-02-23T02:48:02;96488.53;;;2.52;100.00
7433;BME280;32233;49.500;7.764;2024-02-23T02:50:29;96482.31;;;2.46;100.00
7433;BME280;32233;49.500;7.764;2024-02-23T02:52:56;96493.97;;;2.50;100.00
7433;BME280;32233;49.500;7.764;2024-02-23T02:55:22;96483.69;;;2.48;100.00
7433;BME280;32233;49.500;7.764;2024-02-23T02:57:49;96483.53;;;2.50;100.00
7433;BME280;32233;49.500;7.764;2024-02-23T03:00:16;96487.53;;;2.46;100.00
7433;BME280;32233;49.500;7.764;2024-02-23T03:02:42;96486.91;;;2.44;100.00
7433;BME280;32233;49.500;7.764;2024-02-23T03:05:09;96479.09;;;2.37;100.00
7433;BME280;32233;49.500;7.764;2024-02-23T03:07:35;96473.06;;;2.43;100.00
7433;BME280;32233;49.500;7.764;2024-02-23T03:10:02;96476.06;;;2.40;100.00
7433;BME280;32233;49.500;7.764;2024-02-23T03:12:29;96477.28;;;2.38;100.00
7433;BME280;32233;49.500;7.764;2024-02-23T03:14:56;96480.09;;;2.43;100.00
7433;BME280;32233;49.500;7.764;2024-02-23T03:17:23;96485.72;;;2.46;100.00
7433;BME280;32233;49.500;7.764;2024-02-23T03:19:49;96466.84;;;2.38;100.00
7433;BME280;32233;49.500;7.764;2024-02-23T03:22:19;96476.88;;;2.34;100.00
7433;BME280;32233;49.500;7.764;2024-02-23T03:24:46;96469.22;;;2.26;100.00
7433;BME280;32233;49.500;7.764;2024-02-23T03:27:12;96466.81;;;2.18;100.00
7433;BME280;32233;49.500;7.764;2024-02-23T03:29:39;96471.41;;;2.22;100.00
7433;BME280;32233;49.500;7.764;2024-02-23T03:32:07;96458.81;;;2.33;100.00
7433;BME280;32233;49.500;7.764;2024-02-23T03:34:33;96465.38;;;2.15;100.00
7433;BME280;32233;49.500;7.764;2024-02-23T03:37:00;96448.16;;;2.21;100.00
7433;BME280;32233;49.500;7.764;2024-02-23T03:39:29;96446.94;;;2.10;100.00
7433;BME280;32233;49.500;7.764;2024-02-23T03:41:55;96450.16;;;2.12;100.00
7433;BME280;32233;49.500;7.764;2024-02-23T03:44:22;96444.97;;;2.26;100.00
7433;BME280;32233;49.500;7.764;2024-02-23T03:46:49;96452.94;;;2.11;100.00
7433;BME280;32233;49.500;7.764;2024-02-23T03:49:16;96445.31;;;2.16;100.00
7433;BME280;32233;49.500;7.764;2024-02-23T03:51:43;96447.38;;;2.20;100.00
7433;BME280;32233;49.500;7.764;2024-02-23T03:54:09;96452.75;;;2.12;100.00
7433;BME280;32233;49.500;7.764;2024-02-23T03:56:40;96457.81;;;2.20;100.00
7433;BME280;32233;49.500;7.764;2024-02-23T03:59:08;96450.16;;;2.19;100.00
7433;BME280;32233;49.500;7.764;2024-02-23T04:01:36;96469.38;;;2.11;100.00
7433;BME280;32233;49.500;7.764;2024-02-23T04:04:04;96465.56;;;2.07;100.00
7433;BME280;32233;49.500;7.764;2024-02-23T04:06:31;96471.97;;;2.05;100.00
7433;BME280;32233;49.500;7.764;2024-02-23T04:08:58;96460.97;;;2.16;100.00
7433;BME280;32233;49.500;7.764;2024-02-23T04:11:24;96456.59;;;2.23;100.00
7433;BME280;32233;49.500;7.764;2024-02-23T04:13:51;96459.56;;;2.20;100.00
7433;BME280;32233;49.500;7.764;2024-02-23T04:16:22;96456.97;;;2.20;100.00
7433;BME280;32233;49.500;7.764;2024-02-23T04:18:49;96463.63;;;2.29;100.00
7433;BME280;32233;49.500;7.764;2024-02-23T04:21:15;96453.38;;;2.21;100.00
7433;BME280;32233;49.500;7.764;2024-02-23T04:23:43;96458.94;;;2.11;100.00
7433;BME280;32233;49.500;7.764;2024-02-23T04:26:09;96459.78;;;2.18;100.00
7433;BME280;32233;49.500;7.764;2024-02-23T04:28:42;96453.75;;;2.11;100.00
7433;BME280;32233;49.500;7.764;2024-02-23T04:31:09;96448.31;;;2.06;100.00
7433;BME280;32233;49.500;7.764;2024-02-23T04:33:36;96457.34;;;2.10;100.00
7433;BME280;32233;49.500;7.764;2024-02-23T04:36:04;96455.38;;;2.12;100.00
7433;BME280;32233;49.500;7.764;2024-02-23T04:38:31;96456.72;;;2.02;100.00
7433;BME280;32233;49.500;7.764;2024-02-23T04:40:58;96459.75;;;2.05;100.00
7433;BME280;32233;49.500;7.764;2024-02-23T04:43:25;96461.59;;;2.18;100.00
7433;BME280;32233;49.500;7.764;2024-02-23T04:45:52;96465.38;;;2.09;100.00
7433;BME280;32233;49.500;7.764;2024-02-23T04:48:18;96466.19;;;2.09;100.00
7433;BME280;32233;49.500;7.764;2024-02-23T04:50:45;96467.81;;;2.17;100.00
7433;BME280;32233;49.500;7.764;2024-02-23T04:53:11;96479.03;;;2.17;100.00
7433;BME280;32233;49.500;7.764;2024-02-23T04:55:38;96466.19;;;2.16;100.00
7433;BME280;32233;49.500;7.764;2024-02-23T04:58:05;96463.78;;;2.14;100.00
7433;BME280;32233;49.500;7.764;2024-02-23T05:00:32;96459.97;;;2.10;100.00
7433;BME280;32233;49.500;7.764;2024-02-23T05:03:01;96459.75;;;2.12;100.00
7433;BME280;32233;49.500;7.764;2024-02-23T05:05:30;96460.59;;;2.19;100.00
7433;BME280;32233;49.500;7.764;2024-02-23T05:07:58;96456.59;;;2.16;100.00
7433;BME280;32233;49.500;7.764;2024-02-23T05:10:26;96460.00;;;2.17;100.00
7433;BME280;32233;49.500;7.764;2024-02-23T05:12:53;96461.22;;;2.21;100.00
7433;BME280;32233;49.500;7.764;2024-02-23T05:15:19;96466.81;;;2.31;100.00
7433;BME280;32233;49.500;7.764;2024-02-23T05:17:46;96464.63;;;2.35;100.00
7433;BME280;32233;49.500;7.764;2024-02-23T05:20:13;96463.41;;;2.24;100.00
7433;BME280;32233;49.500;7.764;2024-02-23T05:22:40;96477.28;;;2.38;100.00
7433;BME280;32233;49.500;7.764;2024-02-23T05:25:07;96467.84;;;2.43;100.00
7433;BME280;32233;49.500;7.764;2024-02-23T05:27:34;96463.84;;;2.41;100.00
7433;BME280;32233;49.500;7.764;2024-02-23T05:30:01;96467.06;;;2.43;100.00
7433;BME280;32233;49.500;7.764;2024-02-23T05:32:27;96464.03;;;2.53;100.00
7433;BME280;32233;49.500;7.764;2024-02-23T05:34:54;96459.66;;;2.53;100.00
7433;BME280;32233;49.500;7.764;2024-02-23T05:37:23;96458.06;;;2.59;100.00
7433;BME280;32233;49.500;7.764;2024-02-23T05:39:50;96466.09;;;2.57;100.00
7433;BME280;32233;49.500;7.764;2024-02-23T05:42:17;96474.50;;;2.59;100.00
7433;BME280;32233;49.500;7.764;2024-02-23T05:44:43;96473.69;;;2.59;100.00
7433;BME280;32233;49.500;7.764;2024-02-23T05:47:11;96480.94;;;2.63;100.00
7433;BME280;32233;49.500;7.764;2024-02-23T05:49:40;96486.16;;;2.63;100.00
7433;BME280;32233;49.500;7.764;2024-02-23T05:52:06;96487.56;;;2.66;100.00
7433;BME280;32233;49.500;7.764;2024-02-23T05:54:33;96493.38;;;2.61;100.00
7433;BME280;32233;49.500;7.764;2024-02-23T05:57:00;96496.56;;;2.63;100.00
7433;BME280;32233;49.500;7.764;2024-02-23T05:59:27;96493.75;;;2.65;100.00
7433;BME280;32233;49.500;7.764;2024-02-23T06:01:54;96491.16;;;2.65;100.00
7433;BME280;32233;49.500;7.764;2024-02-23T06:04:24;96496.38;;;2.65;100.00
7433;BME280;32233;49.500;7.764;2024-02-23T06:06:50;96503.59;;;2.63;100.00
7433;BME280;32233;49.500;7.764;2024-02-23T06:09:17;96502.19;;;2.60;100.00
7433;BME280;32233;49.500;7.764;2024-02-23T06:11:45;96500.78;;;2.58;100.00
7433;BME280;32233;49.500;7.764;2024-02-23T06:14:12;96498.75;;;2.46;100.00
7433;BME280;32233;49.500;7.764;2024-02-23T06:16:39;96489.31;;;2.39;100.00
7433;BME280;32233;49.500;7.764;2024-02-23T06:19:06;96485.50;;;2.35;100.00
7433;BME280;32233;49.500;7.764;2024-02-23T06:21:33;96492.91;;;2.31;100.00
7433;BME280;32233;49.500;7.764;2024-02-23T06:24:00;96487.88;;;2.23;100.00
7433;BME280;32233;49.500;7.764;2024-02-23T06:26:26;96481.63;;;2.17;100.00
7433;BME280;32233;49.500;7.764;2024-02-23T06:28:53;96487.84;;;2.10;100.00
7433;BME280;32233;49.500;7.764;2024-02-23T06:31:19;96489.00;;;2.07;100.00
7433;BME280;32233;49.500;7.764;2024-02-23T06:33:46;96484.78;;;1.99;100.00
7433;BME280;32233;49.500;7.764;2024-02-23T06:36:15;96487.44;;;2.13;100.00
7433;BME280;32233;49.500;7.764;2024-02-23T06:38:42;96485.97;;;1.97;100.00
7433;BME280;32233;49.500;7.764;2024-02-23T06:41:09;96482.16;;;1.93;100.00
7433;BME280;32233;49.500;7.764;2024-02-23T06:43:37;96480.97;;;2.02;100.00
7433;BME280;32233;49.500;7.764;2024-02-23T06:46:06;96489.34;;;1.91;100.00
7433;BME280;32233;49.500;7.764;2024-02-23T06:48:34;96486.75;;;1.91;100.00
7433;BME280;32233;49.500;7.764;2024-02-23T06:51:01;96489.56;;;1.89;100.00
7433;BME280;32233;49.500;7.764;2024-02-23T06:53:27;96498.19;;;1.90;100.00
7433;BME280;32233;49.500;7.764;2024-02-23T06:55:54;96503.00;;;1.99;100.00
7433;BME280;32233;49.500;7.764;2024-02-23T06:58:21;96511.25;;;2.03;100.00
7433;BME280;32233;49.500;7.764;2024-02-23T07:00:47;96513.50;;;2.13;100.00
7433;BME280;32233;49.500;7.764;2024-02-23T07:03:14;96510.34;;;2.31;100.00
7433;BME280;32233;49.500;7.764;2024-02-23T07:05:41;96522.78;;;2.35;100.00
7433;BME280;32233;49.500;7.764;2024-02-23T07:08:09;96505.38;;;2.42;100.00
7433;BME280;32233;49.500;7.764;2024-02-23T07:10:36;96515.59;;;2.44;100.00
7433;BME280;32233;49.500;7.764;2024-02-23T07:13:02;96530.88;;;2.54;100.00
7433;BME280;32233;49.500;7.764;2024-02-23T07:15:33;96523.84;;;2.61;100.00
7433;BME280;32233;49.500;7.764;2024-02-23T07:17:59;96534.72;;;2.71;100.00
7433;BME280;32233;49.500;7.764;2024-02-23T07:20:26;96528.31;;;2.73;100.00
7433;BME280;32233;49.500;7.764;2024-02-23T07:22:52;96535.53;;;2.71;100.00
7433;BME280;32233;49.500;7.764;2024-02-23T07:25:20;96539.56;;;2.87;100.00
7433;BME280;32233;49.500;7.764;2024-02-23T07:27:50;96534.34;;;2.87;100.00
7433;BME280;32233;49.500;7.764;2024-02-23T07:30:16;96538.56;;;2.88;100.00
7433;BME280;32233;49.500;7.764;2024-02-23T07:32:44;96552.00;;;2.92;100.00
7433;BME280;32233;49.500;7.764;2024-02-23T07:35:13;96549.19;;;2.93;100.00
7433;BME280;32233;49.500;7.764;2024-02-23T07:37:40;96553.84;;;2.98;100.00
7433;BME280;32233;49.500;7.764;2024-02-23T07:40:07;96561.66;;;3.05;100.00
7433;BME280;32233;49.500;7.764;2024-02-23T07:42:34;96560.66;;;2.99;100.00
7433;BME280;32233;49.500;7.764;2024-02-23T07:45:05;96557.22;;;3.05;100.00
7433;BME280;32233;49.500;7.764;2024-02-23T07:47:33;96561.47;;;3.13;100.00
7433;BME280;32233;49.500;7.764;2024-02-23T07:50:00;96555.84;;;3.29;100.00
7433;BME280;32233;49.500;7.764;2024-02-23T07:52:27;96568.91;;;3.29;100.00
7433;BME280;32233;49.500;7.764;2024-02-23T07:54:53;96570.13;;;3.40;100.00
7433;BME280;32233;49.500;7.764;2024-02-23T07:57:20;96565.09;;;3.52;100.00
7433;BME280;32233;49.500;7.764;2024-02-23T07:59:48;96573.72;;;3.52;100.00
7433;BME280;32233;49.500;7.764;2024-02-23T08:02:15;96583.50;;;3.83;100.00
7433;BME280;32233;49.500;7.764;2024-02-23T08:04:41;96574.91;;;4.86;100.00
7433;BME280;32233;49.500;7.764;2024-02-23T08:07:09;96581.22;;;4.20;100.00
7433;BME280;32233;49.500;7.764;2024-02-23T08:09:35;96580.22;;;4.21;100.00
7433;BME280;32233;49.500;7.764;2024-02-23T08:12:02;96584.63;;;4.27;100.00
7433;BME280;32233;49.500;7.764;2024-02-23T08:14:29;96585.56;;;4.46;100.00
7433;BME280;32233;49.500;7.764;2024-02-23T08:16:56;96591.34;;;4.55;100.00
7433;BME280;32233;49.500;7.764;2024-02-23T08:19:22;96581.09;;;4.53;100.00
7433;BME280;32233;49.500;7.764;2024-02-23T08:21:49;96587.59;;;4.82;100.00
7433;BME280;32233;49.500;7.764;2024-02-23T08:24:15;96589.94;;;4.52;100.00
7433;BME280;32233;49.500;7.764;2024-02-23T08:26:42;96597.22;;;4.50;100.00
7433;BME280;32233;49.500;7.764;2024-02-23T08:29:09;96599.06;;;4.36;100.00
7433;BME280;32233;49.500;7.764;2024-02-23T08:31:35;96601.53;;;4.18;100.00
7433;BME280;32233;49.500;7.764;2024-02-23T08:34:07;96602.75;;;4.22;100.00
7433;BME280;32233;49.500;7.764;2024-02-23T08:36:34;96604.16;;;4.18;100.00
7433;BME280;32233;49.500;7.764;2024-02-23T08:39:00;96609.75;;;4.28;100.00
7433;BME280;32233;49.500;7.764;2024-02-23T08:41:27;96606.38;;;4.21;100.00
7433;BME280;32233;49.500;7.764;2024-02-23T08:43:53;96602.59;;;4.62;100.00
7433;BME280;32233;49.500;7.764;2024-02-23T08:46:22;96608.09;;;4.40;100.00
7433;BME280;32233;49.500;7.764;2024-02-23T08:48:49;96597.38;;;4.62;100.00
7433;BME280;32233;49.500;7.764;2024-02-23T08:51:15;96605.13;;;4.82;100.00
7433;BME280;32233;49.500;7.764;2024-02-23T08:53:42;96599.94;;;4.68;100.00
7433;BME280;32233;49.500;7.764;2024-02-23T08:56:11;96604.19;;;4.63;100.00
7433;BME280;32233;49.500;7.764;2024-02-23T08:58:38;96590.19;;;4.44;100.00
7433;BME280;32233;49.500;7.764;2024-02-23T09:01:04;96591.66;;;4.33;100.00
7433;BME280;32233;49.500;7.764;2024-02-23T09:03:31;96598.41;;;4.47;100.00
7433;BME280;32233;49.500;7.764;2024-02-23T09:05:58;96590.09;;;5.02;100.00
7433;BME280;32233;49.500;7.764;2024-02-23T09:08:25;96588.84;;;5.05;100.00
7433;BME280;32233;49.500;7.764;2024-02-23T09:10:52;96587.28;;;5.29;100.00
7433;BME280;32233;49.500;7.764;2024-02-23T09:13:18;96585.81;;;6.08;100.00
7433;BME280;32233;49.500;7.764;2024-02-23T09:15:45;96598.09;;;5.89;100.00
7433;BME280;32233;49.500;7.764;2024-02-23T09:18:12;96581.25;;;5.28;100.00
7433;BME280;32233;49.500;7.764;2024-02-23T09:20:38;96588.34;;;5.21;100.00
7433;BME280;32233;49.500;7.764;2024-02-23T09:23:05;96588.81;;;5.68;100.00
7433;BME280;32233;49.500;7.764;2024-02-23T09:25:32;96580.41;;;6.03;100.00
7433;BME280;32233;49.500;7.764;2024-02-23T09:27:58;96574.00;;;5.99;100.00
7433;BME280;32233;49.500;7.764;2024-02-23T09:30:25;96568.03;;;6.10;100.00
7433;BME280;32233;49.500;7.764;2024-02-23T09:32:51;96574.81;;;5.74;100.00
7433;BME280;32233;49.500;7.764;2024-02-23T09:35:18;96564.09;;;5.57;100.00
7433;BME280;32233;49.500;7.764;2024-02-23T09:37:45;96572.63;;;5.46;100.00
7433;BME280;32233;49.500;7.764;2024-02-23T09:40:11;96571.66;;;5.47;100.00
7433;BME280;32233;49.500;7.764;2024-02-23T09:42:38;96577.19;;;5.57;100.00
7433;BME280;32233;49.500;7.764;2024-02-23T09:45:06;96583.06;;;5.53;100.00
7433;BME280;32233;49.500;7.764;2024-02-23T09:47:34;96580.94;;;5.86;100.00
7433;BME280;32233;49.500;7.764;2024-02-23T09:50:03;96582.47;;;5.51;100.00
7433;BME280;32233;49.500;7.764;2024-02-23T09:52:32;96581.22;;;5.78;100.00
7433;BME280;32233;49.500;7.764;2024-02-23T09:54:59;96580.63;;;6.01;100.00
7433;BME280;32233;49.500;7.764;2024-02-23T09:57:26;96581.56;;;6.07;100.00
7433;BME280;32233;49.500;7.764;2024-02-23T09:59:53;96585.75;;;5.96;100.00
7433;BME280;32233;49.500;7.764;2024-02-23T10:02:20;96578.97;;;6.07;100.00
7433;BME280;32233;49.500;7.764;2024-02-23T10:04:48;96582.25;;;6.02;100.00
7433;BME280;32233;49.500;7.764;2024-02-23T10:07:17;96586.00;;;5.38;100.00
7433;BME280;32233;49.500;7.764;2024-02-23T10:09:44;96584.81;;;5.59;100.00
7433;BME280;32233;49.500;7.764;2024-02-23T10:12:11;96566.66;;;5.82;100.00
7433;BME280;32233;49.500;7.764;2024-02-23T10:14:37;96577.50;;;6.48;100.00
7433;BME280;32233;49.500;7.764;2024-02-23T10:17:06;96572.03;;;7.21;100.00
7433;BME280;32233;49.500;7.764;2024-02-23T10:19:33;96573.38;;;7.00;100.00
7433;BME280;32233;49.500;7.764;2024-02-23T10:22:00;96565.75;;;6.80;100.00
7433;BME280;32233;49.500;7.764;2024-02-23T10:24:26;96567.50;;;6.86;100.00
7433;BME280;32233;49.500;7.764;2024-02-23T10:26:53;96565.75;;;6.80;100.00
7433;BME280;32233;49.500;7.764;2024-02-23T10:29:19;96552.53;;;6.57;100.00
7433;BME280;32233;49.500;7.764;2024-02-23T10:31:51;96561.25;;;6.99;100.00
7433;BME280;32233;49.500;7.764;2024-02-23T10:34:19;96560.59;;;6.07;100.00
7433;BME280;32233;49.500;7.764;2024-02-23T10:36:46;96567.97;;;5.91;100.00
7433;BME280;32233;49.500;7.764;2024-02-23T10:39:18;96562.22;;;5.83;100.00
7433;BME280;32233;49.500;7.764;2024-02-23T10:41:53;96565.09;;;6.85;100.00
7433;BME280;32233;49.500;7.764;2024-02-23T10:44:23;96558.47;;;8.18;100.00
7433;BME280;32233;49.500;7.764;2024-02-23T10:46:52;96544.75;;;9.64;100.00
7433;BME280;32233;49.500;7.764;2024-02-23T10:49:20;96542.50;;;9.22;100.00
7433;BME280;32233;49.500;7.764;2024-02-23T10:51:53;96559.63;;;7.75;100.00
7433;BME280;32233;49.500;7.764;2024-02-23T10:54:20;96552.88;;;7.79;100.00
7433;BME280;32233;49.500;7.764;2024-02-23T10:56:50;96549.47;;;7.55;100.00
7433;BME280;32233;49.500;7.764;2024-02-23T10:59:17;96552.78;;;8.61;100.00
7433;BME280;32233;49.500;7.764;2024-02-23T11:01:50;96549.97;;;8.16;100.00
7433;BME280;32233;49.500;7.764;2024-02-23T11:04:19;96550.94;;;7.86;100.00
7433;BME280;32233;49.500;7.764;2024-02-23T11:06:51;96550.84;;;7.69;100.00
7433;BME280;32233;49.500;7.764;2024-02-23T11:09:21;96552.25;;;7.07;100.00
7433;BME280;32233;49.500;7.764;2024-02-23T11:11:58;96541.72;;;8.24;100.00
7433;BME280;32233;49.500;7.764;2024-02-23T11:14:36;96541.28;;;8.67;100.00
7433;BME280;32233;49.500;7.764;2024-02-23T11:17:04;96522.28;;;9.61;100.00
7433;BME280;32233;49.500;7.764;2024-02-23T11:19:34;96532.50;;;10.57;100.00
7433;BME280;32233;49.500;7.764;2024-02-23T11:22:03;96510.09;;;12.56;100.00
7433;BME280;32233;49.500;7.764;2024-02-23T11:24:31;96521.50;;;10.93;100.00
7433;BME280;32233;49.500;7.764;2024-02-23T11:26:59;96524.56;;;11.81;100.00
7433;BME280;32233;49.500;7.764;2024-02-23T11:29:27;96524.72;;;12.01;100.00
7433;BME280;32233;49.500;7.764;2024-02-23T11:31:55;96530.19;;;11.52;100.00
7433;BME280;32233;49.500;7.764;2024-02-23T11:34:27;96532.28;;;9.59;100.00
7433;BME280;32233;49.500;7.764;2024-02-23T11:36:54;96517.81;;;9.28;100.00
7433;BME280;32233;49.500;7.764;2024-02-23T11:39:21;96535.59;;;8.59;100.00
7433;BME280;32233;49.500;7.764;2024-02-23T11:41:48;96519.56;;;9.56;100.00
7433;BME280;32233;49.500;7.764;2024-02-23T11:44:18;96527.06;;;10.42;100.00
7433;BME280;32233;49.500;7.764;2024-02-23T11:46:46;96514.38;;;12.73;100.00
7433;BME280;32233;49.500;7.764;2024-02-23T11:49:16;96525.03;;;11.03;100.00
7433;BME280;32233;49.500;7.764;2024-02-23T11:51:43;96530.94;;;9.79;100.00
7433;BME280;32233;49.500;7.764;2024-02-23T11:54:11;96518.34;;;11.23;100.00
7433;BME280;32233;49.500;7.764;2024-02-23T11:56:38;96516.28;;;13.03;100.00
7433;BME280;32233;49.500;7.764;2024-02-23T11:59:05;96511.25;;;13.06;100.00
7433;BME280;32233;49.500;7.764;2024-02-23T12:01:32;96512.53;;;13.91;100.00
7433;BME280;32233;49.500;7.764;2024-02-23T12:03:58;96514.75;;;13.27;100.00
7433;BME280;32233;49.500;7.764;2024-02-23T12:06:25;96511.22;;;12.91;100.00
7433;BME280;32233;49.500;7.764;2024-02-23T12:08:56;96517.50;;;12.49;100.00
7433;BME280;32233;49.500;7.764;2024-02-23T12:11:23;96510.00;;;12.31;100.00
7433;BME280;32233;49.500;7.764;2024-02-23T12:13:50;96511.00;;;13.33;100.00
7433;BME280;32233;49.500;7.764;2024-02-23T12:16:17;96510.47;;;12.18;100.00
7433;BME280;32233;49.500;7.764;2024-02-23T12:18:44;96508.28;;;13.90;100.00
7433;BME280;32233;49.500;7.764;2024-02-23T12:21:11;96504.34;;;15.70;88.89
7433;BME280;32233;49.500;7.764;2024-02-23T12:23:45;96505.16;;;13.16;100.00
7433;BME280;32233;49.500;7.764;2024-02-23T12:26:13;96497.41;;;15.05;94.58
7433;BME280;32233;49.500;7.764;2024-02-23T12:28:41;96510.28;;;11.45;100.00
7433;BME280;32233;49.500;7.764;2024-02-23T12:31:08;96491.63;;;13.69;94.15
7433;BME280;32233;49.500;7.764;2024-02-23T12:33:36;96508.09;;;11.74;100.00
7433;BME280;32233;49.500;7.764;2024-02-23T12:36:04;96501.91;;;12.68;100.00
7433;BME280;32233;49.500;7.764;2024-02-23T12:38:31;96506.72;;;13.78;86.86
7433;BME280;32233;49.500;7.764;2024-02-23T12:41:02;96499.66;;;14.88;71.74
7433;BME280;32233;49.500;7.764;2024-02-23T12:43:29;96506.16;;;12.84;81.71
7433;BME280;32233;49.500;7.764;2024-02-23T12:45:57;96501.91;;;13.91;87.28
7433;BME280;32233;49.500;7.764;2024-02-23T12:48:24;96512.53;;;10.01;100.00
7433;BME280;32233;49.500;7.764;2024-02-23T12:50:51;96515.16;;;10.23;100.00
7433;BME280;32233;49.500;7.764;2024-02-23T12:56:05;96507.13;;;12.43;77.63
7433;BME280;32233;49.500;7.764;2024-02-23T12:58:32;96517.75;;;12.48;90.81
7433;BME280;32233;49.500;7.764;2024-02-23T13:00:58;96519.06;;;11.18;100.00
7433;BME280;32233;49.500;7.764;2024-02-23T13:03:26;96532.44;;;9.02;100.00
7433;BME280;32233;49.500;7.764;2024-02-23T13:05:54;96528.94;;;8.56;100.00
7433;BME280;32233;49.500;7.764;2024-02-23T13:08:22;96515.88;;;8.90;100.00
7433;BME280;32233;49.500;7.764;2024-02-23T13:10:49;96522.31;;;8.65;100.00
7433;BME280;32233;49.500;7.764;2024-02-23T13:13:18;96524.06;;;8.48;100.00